Time;durP1;ratioP1;P1;durP2;ratioP2;P2;SDS_P1;SDS_P2;PMS_P1;PMS_P2;Temp;Humidity;BMP_temperature;BMP_pressure;BME280_temperature;BME280_humidity;BME280_pressure;Samples;Min_cycle;Max_cycle;Signal;HPM_P1;HPM_P2
2022/08/12 04:02:54;;;;;;;2.40;1.98;;;;;;;21.24;47.28;100637.72;5606626;31;78007;-56
2022/08/12 04:05:56;;;;;;;3.97;1.70;;;;;;;21.24;47.28;100637.72;5584146;31;33327;-56
2022/08/12 04:08:59;;;;;;;3.83;1.77;;;;;;;20.75;48.33;100646.78;5584017;31;34131;-56
2022/08/12 04:15:30;;;;;;;6.50;2.05;;;;;;;20.90;48.63;100645.28;5583697;31;34256;-57
2022/08/12 04:18:32;;;;;;;1.73;1.62;;;;;;;20.82;48.51;100646.19;5582313;31;33241;-57
2022/08/12 04:21:36;;;;;;;5.05;1.80;;;;;;;20.94;48.32;100648.91;5583693;31;33738;-57
2022/08/12 04:25:00;;;;;;;3.85;2.03;;;;;;;20.92;48.51;100651.19;5583730;32;34256;-57
2022/08/12 04:28:02;;;;;;;3.50;1.55;;;;;;;20.99;47.67;100648.69;5583916;31;33709;-57
2022/08/12 04:31:15;;;;;;;3.10;2.10;;;;;;;21.03;47.61;100655.03;5583649;32;34187;-57
2022/08/12 04:34:17;;;;;;;2.35;1.90;;;;;;;20.94;47.93;100648.91;5583817;31;33668;-57
2022/08/12 04:37:20;;;;;;;4.20;1.95;;;;;;;20.95;47.75;100660.59;5583486;32;34260;-57
2022/08/12 04:40:24;;;;;;;3.45;1.87;;;;;;;20.97;47.72;100664.59;5583537;32;34301;-57
2022/08/12 04:43:30;;;;;;;3.20;1.73;;;;;;;20.94;48.26;100669.94;5583547;32;33223;-57
2022/08/12 04:46:53;;;;;;;3.42;2.05;;;;;;;21.06;47.59;100670.69;5573860;31;34246;-57
2022/08/12 04:49:55;;;;;;;3.60;1.77;;;;;;;21.09;47.63;100671.94;5563741;32;33782;-57
2022/08/12 04:52:59;;;;;;;2.95;1.67;;;;;;;21.11;47.75;100673.19;5563824;32;33764;-57
2022/08/12 04:56:03;;;;;;;2.03;1.80;;;;;;;21.15;47.86;100678.72;5564209;32;33870;-57
2022/08/12 04:59:06;;;;;;;2.00;1.90;;;;;;;21.23;47.54;100682.47;5564003;32;33737;-56
2022/08/12 05:02:08;;;;;;;5.12;2.00;;;;;;;21.35;47.23;100683.25;5563740;32;33598;-57
2022/08/12 05:05:21;;;;;;;2.75;1.85;;;;;;;21.45;47.55;100681.19;5563849;32;33537;-57
2022/08/12 05:08:25;;;;;;;4.20;2.12;;;;;;;21.38;47.31;100683.72;5563998;32;33669;-56
2022/08/12 05:11:27;;;;;;;3.80;1.90;;;;;;;21.15;47.27;100689.62;5562227;32;34345;-57
2022/08/12 05:14:31;;;;;;;3.62;1.83;;;;;;;21.14;47.83;100690.00;5550922;32;34794;-57
2022/08/12 05:17:39;;;;;;;3.33;1.80;;;;;;;21.26;47.35;100689.97;5550660;32;33715;-57
2022/08/12 05:20:43;;;;;;;5.87;1.85;;;;;;;21.17;47.44;100692.81;5550331;32;33575;-57
2022/08/12 05:23:45;;;;;;;2.28;1.80;;;;;;;21.32;47.69;100686.66;5550802;32;34407;-57
2022/08/12 05:26:48;;;;;;;2.47;1.90;;;;;;;21.30;46.97;100688.13;5550412;32;34306;-57
2022/08/12 05:29:50;;;;;;;4.10;2.10;;;;;;;21.41;46.65;100688.47;5550745;32;34153;-57
2022/08/12 05:33:14;;;;;;;3.05;1.67;;;;;;;21.45;47.05;100678.44;5550638;32;33639;-57
2022/08/12 05:36:18;;;;;;;8.05;2.10;;;;;;;21.63;46.16;100687.94;5550692;32;34252;-56
2022/08/12 05:39:21;;;;;;;2.90;1.80;;;;;;;21.87;47.16;100689.75;5550553;32;32267;-57
2022/08/12 05:42:23;;;;;;;4.35;2.30;;;;;;;21.86;45.85;100690.12;5550501;32;34222;-57
2022/08/12 05:45:35;;;;;;;4.18;2.00;;;;;;;21.86;46.05;100695.59;5550628;32;34320;-57
2022/08/12 05:48:46;;;;;;;3.65;2.00;;;;;;;22.04;46.00;100683.19;5550029;32;35166;-57
2022/08/12 05:51:48;;;;;;;4.68;2.40;;;;;;;22.09;45.79;100690.34;5550232;32;34321;-57
2022/08/12 05:54:50;;;;;;;5.45;2.30;;;;;;;22.20;47.22;100683.25;5567624;32;33728;-57
2022/08/12 05:58:01;;;;;;;4.03;2.53;;;;;;;22.30;45.93;100684.66;5555118;32;33681;-57
2022/08/12 06:01:03;;;;;;;8.57;2.37;;;;;;;22.34;45.47;100682.81;5550009;32;33787;-57
2022/08/12 06:04:26;;;;;;;3.05;1.87;;;;;;;22.26;45.89;100679.09;5549992;32;33567;-57
2022/08/12 06:07:28;;;;;;;6.30;1.77;;;;;;;22.39;45.22;100691.53;5550253;32;33786;-57
2022/08/12 06:10:50;;;;;;;3.15;2.00;;;;;;;22.60;45.52;100683.06;5550254;32;33277;-56
2022/08/12 06:13:54;;;;;;;11.38;2.40;;;;;;;22.68;44.79;100679.34;5549627;32;34267;-57
2022/08/12 06:16:58;;;;;;;4.37;2.12;;;;;;;22.70;46.07;100679.78;5563108;32;33829;-57
2022/08/12 06:20:01;;;;;;;4.55;2.28;;;;;;;22.78;46.15;100680.75;5569163;32;33634;-56
2022/08/12 06:23:27;;;;;;;8.07;2.87;;;;;;;22.83;46.27;100685.16;5568634;32;33749;-57
2022/08/12 06:26:29;;;;;;;7.30;2.30;;;;;;;22.97;45.35;100680.81;5569140;32;33731;-57
2022/08/12 06:29:33;;;;;;;7.12;3.40;;;;;;;23.00;43.96;100689.47;5569553;32;34358;-57
2022/08/12 06:32:55;;;;;;;14.45;2.60;;;;;;;22.96;44.00;100686.66;5569207;32;34382;-57
2022/08/12 06:36:15;;;;;;;16.55;3.10;;;;;;;23.08;44.07;100680.25;5569205;32;34292;-57
2022/08/12 06:39:23;;;;;;;7.93;2.33;;;;;;;23.30;44.11;100682.28;5569315;32;34229;-57
2022/08/12 06:42:59;;;;;;;8.50;2.60;;;;;;;23.45;43.56;100677.91;5568486;32;33733;-58
2022/08/12 06:45:56;;;;;;;5.25;2.20;;;;;;;23.47;43.53;100675.59;5567594;31;33785;-57
2022/08/12 06:48:59;;;;;;;6.20;2.40;;;;;;;23.44;43.24;100679.06;5569269;32;33564;-57
2022/08/12 06:52:03;;;;;;;6.30;2.55;;;;;;;23.21;45.00;100681.69;5569205;32;33645;-57
2022/08/12 06:55:19;;;;;;;5.50;2.30;;;;;;;23.23;44.03;100679.41;5569294;32;34285;-57
2022/08/12 06:58:23;;;;;;;9.90;2.60;;;;;;;23.30;43.83;100685.03;5567384;32;33751;-57
2022/08/12 07:01:26;;;;;;;5.80;2.40;;;;;;;23.35;43.52;100687.50;5568635;32;34343;-57
2022/08/12 07:04:28;;;;;;;2.90;2.20;;;;;;;23.39;43.88;100684.81;5569101;32;33842;-57
2022/08/12 07:07:40;;;;;;;6.55;2.28;;;;;;;23.42;43.73;100687.63;5569252;32;33601;-57
2022/08/12 07:10:57;;;;;;;6.72;2.40;;;;;;;23.59;43.74;100685.63;5569036;32;33732;-57
2022/08/12 07:14:03;;;;;;;7.18;2.42;;;;;;;23.81;43.28;100684.13;5568657;32;33635;-57
2022/08/12 07:17:14;;;;;;;10.02;2.40;;;;;;;23.99;42.81;100687.19;5568689;32;33336;-57
2022/08/12 07:20:16;;;;;;;13.15;2.72;;;;;;;24.02;42.31;100678.25;5568476;32;33625;-57
2022/08/12 07:23:40;;;;;;;6.43;2.45;;;;;;;23.99;41.69;100687.97;5569166;32;33627;-57
2022/08/12 07:26:43;;;;;;;36.22;3.28;;;;;;;24.05;42.14;100688.47;5568779;32;33605;-57
2022/08/12 07:29:46;;;;;;;7.05;2.72;;;;;;;24.15;41.80;100696.88;5568722;32;33847;-57
2022/08/12 07:33:07;;;;;;;7.70;2.58;;;;;;;24.16;41.66;100692.19;5568873;32;33621;-57
2022/08/12 07:36:12;;;;;;;6.10;2.45;;;;;;;24.22;41.50;100696.19;5568277;32;33547;-57
2022/08/12 07:39:15;;;;;;;5.95;2.75;;;;;;;24.12;42.08;100691.34;5568692;32;34332;-57
2022/08/12 07:42:17;;;;;;;6.00;2.40;;;;;;;24.15;42.11;100688.66;5568490;32;34276;-57
2022/08/12 07:45:20;;;;;;;4.03;2.22;;;;;;;24.22;42.67;100693.47;5568382;32;33705;-57
2022/08/12 07:48:23;;;;;;;6.90;2.30;;;;;;;24.34;42.17;100693.28;5568308;32;33488;-57
2022/08/12 07:51:27;;;;;;;4.05;2.60;;;;;;;24.40;41.45;100685.53;5568570;32;34138;-57
2022/08/12 07:54:29;;;;;;;4.32;2.67;;;;;;;24.35;41.54;100686.66;5568458;32;33697;-57
2022/08/12 07:57:31;;;;;;;4.50;2.47;;;;;;;24.29;41.72;100679.88;5568194;32;33694;-57
2022/08/12 08:00:36;;;;;;;6.87;2.65;;;;;;;24.32;42.04;100689.31;5567952;32;33630;-57
2022/08/12 08:04:54;;;;;;;3.12;2.50;;;;;;;24.20;42.10;100684.81;5568102;32;33975;-57
2022/08/12 08:07:02;;;;;;;7.68;2.75;;;;;;;24.34;42.96;100682.31;5568073;32;33650;-57
2022/08/12 08:10:09;;;;;;;32.47;3.50;;;;;;;24.37;42.70;100681.59;5568175;32;33616;-57
2022/08/12 08:13:12;;;;;;;11.25;2.70;;;;;;;24.43;41.67;100684.84;5567944;32;33628;-57
2022/08/12 08:16:14;;;;;;;6.10;2.75;;;;;;;24.49;42.91;100679.84;5567946;32;33570;-57
2022/08/12 08:19:22;;;;;;;7.25;2.47;;;;;;;24.53;41.07;100670.50;5568120;32;34338;-57
2022/08/12 08:22:25;;;;;;;5.90;2.20;;;;;;;24.47;42.33;100677.47;5567639;32;33760;-57
2022/08/12 08:25:44;;;;;;;6.78;2.75;;;;;;;24.63;42.67;100682.00;5568018;32;33735;-57
2022/08/12 08:28:47;;;;;;;6.20;2.62;;;;;;;24.69;41.70;100678.59;5567925;32;33645;-57
2022/08/12 08:31:53;;;;;;;4.18;2.70;;;;;;;24.62;41.70;100675.75;5567626;32;33163;-57
2022/08/12 08:34:55;;;;;;;7.30;3.05;;;;;;;24.64;41.81;100667.94;5567796;32;34320;-57
2022/08/12 08:38:14;;;;;;;4.68;2.55;;;;;;;24.78;42.78;100672.84;5567459;32;33826;-57
2022/08/12 08:45:15;;;;;;;12.98;2.80;;;;;;;24.75;41.66;100663.41;5567523;32;33561;-57
2022/08/12 08:48:17;;;;;;;3.25;2.15;;;;;;;24.97;42.03;100667.25;5568546;32;33642;-57
2022/08/12 08:51:23;;;;;;;6.47;2.92;;;;;;;25.06;42.94;100661.47;5568856;32;34377;-57
2022/08/12 08:54:25;;;;;;;5.65;2.70;;;;;;;25.04;40.58;100661.06;5569975;32;33930;-57
2022/08/12 08:57:27;;;;;;;10.85;2.90;;;;;;;25.11;40.43;100663.91;5563468;32;34517;-57
2022/08/12 09:00:49;;;;;;;5.03;2.92;;;;;;;25.11;40.42;100661.16;5550129;32;34335;-57
2022/08/12 09:03:51;;;;;;;16.70;3.10;;;;;;;25.17;40.42;100659.72;5550361;32;33629;-57
2022/08/12 09:07:16;;;;;;;9.57;2.95;;;;;;;25.29;40.27;100656.72;5550332;32;33557;-57
2022/08/12 09:10:39;;;;;;;5.43;3.05;;;;;;;25.30;40.40;100643.81;5549221;32;34274;-58
2022/08/12 09:13:48;;;;;;;11.12;3.00;;;;;;;25.45;40.26;100648.28;5553190;32;33609;-57
2022/08/12 09:17:14;;;;;;;14.25;3.30;;;;;;;25.43;40.20;100631.41;5551035;32;34363;-57
2022/08/12 09:20:38;;;;;;;4.85;2.67;;;;;;;25.43;39.81;100636.91;5549867;32;33548;-57
2022/08/12 09:23:41;;;;;;;14.27;2.90;;;;;;;25.51;42.25;100649.53;5550219;32;34319;-58
2022/08/12 09:27:05;;;;;;;10.02;2.83;;;;;;;25.47;39.29;100642.44;5550276;32;33706;-57
2022/08/12 09:30:14;;;;;;;6.20;2.72;;;;;;;25.51;39.22;100633.06;5548748;32;33708;-57
2022/08/12 09:33:17;;;;;;;3.97;2.78;;;;;;;25.51;39.59;100637.75;5565344;32;33817;-57
2022/08/12 09:36:40;;;;;;;6.53;2.53;;;;;;;25.66;38.70;100624.97;5553121;32;34509;-57
2022/08/12 09:40:03;;;;;;;4.22;2.30;;;;;;;25.70;39.07;100623.06;5559403;32;34412;-57
2022/08/12 09:47:02;;;;;;;5.25;2.47;;;;;;;25.82;39.04;100611.03;5555397;32;33704;-57
2022/08/12 09:50:11;;;;;;;4.40;2.47;;;;;;;25.93;38.39;100611.94;5563723;32;33629;-57
2022/08/12 09:53:24;;;;;;;3.53;2.80;;;;;;;25.90;38.30;100607.97;5569414;32;33619;-58
2022/08/12 09:56:40;;;;;;;8.98;2.83;;;;;;;25.97;38.23;100607.25;5569291;32;33806;-57
2022/08/12 10:00:05;;;;;;;4.72;3.08;;;;;;;25.88;37.98;100598.53;5569228;32;33697;-57
2022/08/12 10:03:20;;;;;;;5.43;2.45;;;;;;;26.04;38.05;100599.06;5569579;32;33658;-57
2022/08/12 10:06:34;;;;;;;8.40;2.80;;;;;;;25.99;37.38;100599.41;5569646;32;34283;-57
2022/08/12 10:09:37;;;;;;;9.63;3.20;;;;;;;25.99;38.34;100602.16;5569733;32;34392;-57
2022/08/12 10:16:44;;;;;;;5.18;2.60;;;;;;;26.07;39.75;100592.81;5569006;32;33663;-57
2022/08/12 10:19:47;;;;;;;6.05;2.37;;;;;;;26.06;37.81;100590.44;5569292;32;33745;-57
2022/08/12 10:22:57;;;;;;;10.65;2.95;;;;;;;26.12;37.98;100589.69;5569177;32;34703;-57
2022/08/12 10:29:45;;;;;;;4.53;2.62;;;;;;;26.19;37.71;100589.78;5551930;31;33491;-57
2022/08/12 10:33:07;;;;;;;9.77;2.83;;;;;;;26.42;36.96;100585.97;5569344;32;33762;-57
2022/08/12 10:36:20;;;;;;;4.10;2.55;;;;;;;26.53;37.42;100580.59;5569054;32;34425;-57
2022/08/12 10:39:44;;;;;;;3.28;2.53;;;;;;;26.63;36.18;100579.87;5569230;32;34295;-57
2022/08/12 10:46:28;;;;;;;7.85;3.00;;;;;;;26.68;37.40;100560.25;5569171;32;33390;-57
2022/08/12 10:49:33;;;;;;;4.57;2.60;;;;;;;26.74;35.92;100571.66;5569357;32;33713;-57
2022/08/12 10:52:55;;;;;;;4.03;2.30;;;;;;;26.75;35.74;100565.00;5566384;32;34381;-58
2022/08/12 10:55:59;;;;;;;7.62;2.65;;;;;;;26.64;37.12;100560.22;5548150;32;33374;-57
2022/08/12 10:59:06;;;;;;;6.35;2.08;;;;;;;26.62;35.79;100561.78;5548984;32;33854;-57
2022/08/12 11:02:13;;;;;;;4.53;2.37;;;;;;;26.60;34.82;100567.69;5548783;32;34345;-57
2022/08/12 11:05:35;;;;;;;5.22;2.12;;;;;;;26.67;34.30;100570.47;5549759;32;33747;-57
2022/08/12 11:08:59;;;;;;;4.93;2.35;;;;;;;26.74;36.10;100566.97;5550795;32;34347;-58
2022/08/12 11:12:05;;;;;;;10.63;2.47;;;;;;;26.77;34.67;100568.16;5567905;32;34379;-57
2022/08/12 11:15:28;;;;;;;3.92;1.98;;;;;;;26.82;35.88;100576.03;5568954;32;33779;-57
2022/08/12 11:18:50;;;;;;;3.80;2.55;;;;;;;26.86;34.57;100569.37;5568790;32;34299;-57
2022/08/12 11:21:58;;;;;;;5.37;2.03;;;;;;;26.83;34.79;100572.13;5568567;32;33659;-58
2022/08/12 11:25:08;;;;;;;2.92;1.90;;;;;;;26.91;35.17;100563.50;5568488;32;33676;-57
2022/08/12 11:28:13;;;;;;;3.78;2.10;;;;;;;26.91;35.57;100557.97;5568365;32;34462;-57
2022/08/12 11:31:17;;;;;;;3.25;2.12;;;;;;;26.98;34.83;100561.94;5558471;32;34252;-57
2022/08/12 11:34:20;;;;;;;11.45;2.83;;;;;;;27.10;34.10;100550.59;5556763;32;34458;-57
2022/08/12 11:37:42;;;;;;;4.62;2.55;;;;;;;27.11;34.90;100566.69;5568577;32;34240;-57
2022/08/12 11:41:03;;;;;;;4.45;2.30;;;;;;;27.13;35.14;100553.38;5568690;32;33745;-58
2022/08/12 11:44:06;;;;;;;4.10;2.00;;;;;;;27.22;34.70;100561.28;5568643;32;33676;-58
2022/08/12 11:47:28;;;;;;;3.58;2.15;;;;;;;27.26;36.06;100558.53;5567575;31;33701;-57
2022/08/12 11:50:31;;;;;;;2.92;2.20;;;;;;;27.22;35.96;100558.53;5568474;32;33700;-57
2022/08/12 11:53:35;;;;;;;4.87;2.45;;;;;;;27.20;36.59;100549.09;5566036;32;34338;-57
2022/08/12 11:57:00;;;;;;;4.57;2.20;;;;;;;27.26;35.55;100553.03;5568252;32;34383;-58
2022/08/12 12:00:24;;;;;;;4.05;2.22;;;;;;;27.12;35.22;100546.28;5568157;32;33609;-57
2022/08/12 12:03:47;;;;;;;4.97;2.55;;;;;;;27.13;38.24;100549.84;5567765;32;34315;-57
2022/08/12 12:06:49;;;;;;;4.03;2.08;;;;;;;27.17;36.25;100542.37;5549902;32;33778;-57
2022/08/12 12:09:54;;;;;;;2.65;2.00;;;;;;;27.27;34.97;100538.87;5547644;32;33739;-57
2022/08/12 12:12:56;;;;;;;4.25;2.10;;;;;;;27.29;35.96;100547.53;5548650;32;33625;-57
2022/08/12 12:15:59;;;;;;;2.50;2.28;;;;;;;27.32;35.48;100540.47;5548625;32;33634;-57
2022/08/12 12:19:01;;;;;;;4.28;2.40;;;;;;;27.26;35.21;100533.78;5561971;32;34277;-57
2022/08/12 12:22:03;;;;;;;3.53;2.12;;;;;;;27.27;35.82;100538.09;5568530;32;33677;-57
2022/08/12 12:25:07;;;;;;;2.90;2.25;;;;;;;27.26;34.91;100531.00;5570836;32;34292;-57
2022/08/12 12:28:16;;;;;;;5.60;2.15;;;;;;;27.21;34.81;100528.63;5570858;32;34354;-57
2022/08/12 12:31:38;;;;;;;2.05;1.85;;;;;;;27.14;35.15;100519.19;5570858;32;33694;-57
2022/08/12 12:35:00;;;;;;;4.35;2.40;;;;;;;27.11;35.40;100513.62;5570612;32;33689;-57
2022/08/12 12:38:22;;;;;;;2.80;2.15;;;;;;;27.22;36.02;100513.69;5569810;32;33814;-57
2022/08/12 12:41:28;;;;;;;5.32;2.30;;;;;;;27.20;35.80;100513.31;5569647;32;34619;-57
2022/08/12 12:44:50;;;;;;;3.97;2.40;;;;;;;27.25;36.43;100497.22;5570546;32;33672;-57
2022/08/12 12:47:57;;;;;;;3.58;2.40;;;;;;;27.35;35.14;100488.16;5570393;32;34386;-57
2022/08/12 12:51:14;;;;;;;6.17;2.60;;;;;;;27.42;35.21;100498.41;5570472;32;34337;-57
2022/08/12 12:54:51;;;;;;;6.18;2.50;;;;;;;27.52;34.88;100486.59;5570466;32;33601;-57
2022/08/12 12:57:53;;;;;;;2.75;2.35;;;;;;;27.52;33.79;100485.81;5570068;32;34227;-57
2022/08/12 13:01:02;;;;;;;9.65;2.20;;;;;;;27.50;34.05;100488.94;5570027;32;34287;-57
2022/08/12 13:04:25;;;;;;;4.05;2.40;;;;;;;27.56;33.12;100483.84;5570251;32;34305;-57
2022/08/12 13:07:28;;;;;;;3.92;2.42;;;;;;;27.51;33.77;100470.47;5570407;32;33749;-57
2022/08/12 13:10:51;;;;;;;3.65;2.30;;;;;;;27.45;34.22;100466.53;5570397;32;33703;-57
2022/08/12 13:13:56;;;;;;;2.70;2.10;;;;;;;27.52;33.67;100480.31;5570577;32;34440;-57
2022/08/12 13:17:16;;;;;;;5.40;2.17;;;;;;;27.51;33.39;100464.97;5570394;32;33631;-57
2022/08/12 13:20:22;;;;;;;4.78;2.33;;;;;;;27.47;33.13;100461.44;5570369;32;34357;-57
2022/08/12 13:23:40;;;;;;;5.50;2.67;;;;;;;27.45;33.00;100463.78;5570138;32;33773;-57
2022/08/12 13:26:46;;;;;;;6.03;2.70;;;;;;;27.57;33.51;100461.41;5570158;32;34271;-57
2022/08/12 13:29:48;;;;;;;4.72;2.40;;;;;;;27.57;33.58;100455.91;5570345;32;34313;-57
2022/08/12 13:32:56;;;;;;;4.50;2.33;;;;;;;27.66;33.84;100451.97;5569769;32;34193;-57
2022/08/12 13:36:00;;;;;;;6.80;2.50;;;;;;;27.69;32.91;100457.50;5570123;32;34401;-57
2022/08/12 13:39:11;;;;;;;11.48;2.25;;;;;;;27.58;33.59;100454.75;5569909;32;33720;-57
2022/08/12 13:42:21;;;;;;;5.40;2.12;;;;;;;27.69;34.23;100459.47;5569573;32;33622;-57
2022/08/12 13:45:25;;;;;;;4.43;2.30;;;;;;;27.61;33.90;100453.94;5569736;32;33599;-57
2022/08/12 13:48:29;;;;;;;9.10;2.72;;;;;;;27.60;33.55;100457.87;5570106;32;33750;-57
2022/08/12 13:51:34;;;;;;;8.27;2.00;;;;;;;27.67;33.80;100453.53;5569380;32;34508;-57
2022/08/12 13:54:42;;;;;;;8.00;2.25;;;;;;;27.79;33.04;100451.22;5570064;32;33763;-57
2022/08/12 13:57:57;;;;;;;4.32;1.98;;;;;;;27.82;32.75;100446.87;5570080;32;33696;-57
2022/08/12 14:01:04;;;;;;;5.30;2.40;;;;;;;27.91;32.23;100430.72;5569982;32;33683;-57
2022/08/12 14:04:10;;;;;;;3.87;2.03;;;;;;;27.85;32.86;100435.06;5570000;32;33719;-57
2022/08/12 14:07:13;;;;;;;3.92;2.25;;;;;;;27.94;32.84;100431.88;5569744;32;34283;-58
2022/08/12 14:10:35;;;;;;;4.95;2.22;;;;;;;28.05;31.41;100424.41;5569886;32;34348;-57
2022/08/12 14:13:38;;;;;;;4.70;2.15;;;;;;;28.05;32.08;100424.41;5570008;32;33766;-57
2022/08/12 14:17:02;;;;;;;2.47;1.87;;;;;;;28.13;31.51;100425.16;5569875;32;34431;-57
2022/08/12 14:20:13;;;;;;;9.65;2.10;;;;;;;28.01;31.26;100432.69;5569761;32;33781;-57
2022/08/12 14:23:23;;;;;;;4.62;2.03;;;;;;;27.85;31.22;100429.56;5568986;32;33693;-57
2022/08/12 14:26:45;;;;;;;5.95;1.80;;;;;;;27.76;31.60;100423.63;5569896;32;33650;-57
2022/08/12 14:29:52;;;;;;;4.20;2.00;;;;;;;27.68;31.73;100425.59;5569874;32;33706;-57
2022/08/12 14:33:06;;;;;;;5.00;1.92;;;;;;;27.70;31.51;100411.44;5569618;32;33913;-58
2022/08/12 14:36:20;;;;;;;4.07;2.28;;;;;;;27.83;32.27;100410.66;5569813;32;34432;-57
2022/08/12 14:39:23;;;;;;;2.65;1.83;;;;;;;27.91;31.51;100403.16;5569118;32;33696;-57
2022/08/12 14:42:27;;;;;;;6.18;1.95;;;;;;;28.01;31.52;100407.88;5569233;32;33908;-57
